Mohawk, Tennessee
Current Conditions -  °F | °C
As of 5:15 PM on Wednesday 28 Jan 2015 (Local Time) from KMOR Reporting Station
Clear Clear  
Wind Chill:   Ceiling: Unl
Heat Index:   Visibility: 10mi
Dew Point: -7°   Wind: 3mph
Humidity: 45%   Direction: 60°ENE
Pressure: 30.26"   Gusts: NA
Location:  36.2°N, 83.05°W
Report Text: KMOR 282215Z AUTO 06003KT 10SM CLR 04/M07 A3026 RMK
Loading
Personal Weather Stations






























Interactive Weather Map New forecast layout! Learn more

10-Day Weather Forecast

Advertisements
Track Severe Weather on mobile